createdAt,value
2022-09-15T00:00:33.695Z,19.01
2022-09-15T00:05:37.224Z,19.06
2022-09-15T00:10:41.830Z,19.02
2022-09-15T00:15:47.216Z,18.92
2022-09-15T00:20:51.120Z,18.80
2022-09-15T00:25:55.140Z,18.85
2022-09-15T00:30:59.978Z,18.86
2022-09-15T00:36:05.646Z,18.90
2022-09-15T00:41:11.723Z,18.78
2022-09-15T00:46:18.267Z,18.84
2022-09-15T00:51:26.477Z,18.75
2022-09-15T00:56:31.573Z,18.69
2022-09-15T01:01:36.438Z,18.51
2022-09-15T01:06:45.636Z,18.44
2022-09-15T01:11:49.475Z,18.48
2022-09-15T01:17:01.818Z,18.47
2022-09-15T01:22:18.418Z,18.16
2022-09-15T01:27:53.067Z,18.33
2022-09-15T01:33:18.199Z,18.40
2022-09-15T01:38:43.426Z,18.39
2022-09-15T01:43:52.093Z,18.36
2022-09-15T01:48:59.765Z,18.16
2022-09-15T01:54:06.978Z,18.07
2022-09-15T01:59:10.900Z,18.04
2022-09-15T02:04:21.780Z,18.02
2022-09-15T02:09:32.792Z,18.09
2022-09-15T02:14:49.148Z,18.10
2022-09-15T02:19:58.710Z,18.29
2022-09-15T02:25:06.303Z,18.40
2022-09-15T02:30:13.164Z,18.46
2022-09-15T02:35:18.776Z,18.59
2022-09-15T02:40:23.360Z,18.69
2022-09-15T02:45:27.306Z,18.74
2022-09-15T02:50:32.492Z,18.72
2022-09-15T02:55:36.321Z,18.69
2022-09-15T03:00:39.850Z,18.71
2022-09-15T03:05:45.008Z,18.71
2022-09-15T03:10:48.445Z,18.83
2022-09-15T03:15:51.818Z,18.99
2022-09-15T03:20:59.104Z,19.01
2022-09-15T03:26:03.110Z,18.97
2022-09-15T03:31:07.652Z,18.98
2022-09-15T03:36:12.606Z,19.02
2022-09-15T03:41:16.002Z,19.08
2022-09-15T03:46:19.893Z,19.12
2022-09-15T03:51:25.328Z,19.09
2022-09-15T03:56:31.406Z,19.08
2022-09-15T04:01:34.999Z,19.11
2022-09-15T04:06:39.933Z,19.13
2022-09-15T04:11:43.413Z,19.18
2022-09-15T04:16:47.415Z,19.26
2022-09-15T04:21:52.631Z,19.32
2022-09-15T04:26:56.231Z,19.40
2022-09-15T04:31:59.660Z,19.48
2022-09-15T04:37:04.606Z,19.66
2022-09-15T04:42:08.088Z,19.78
2022-09-15T04:47:11.794Z,19.96
2022-09-15T04:52:16.594Z,20.12
2022-09-15T04:57:19.935Z,20.26
2022-09-15T05:02:23.396Z,20.52
2022-09-15T05:07:28.239Z,20.67
2022-09-15T05:12:31.930Z,20.81
2022-09-15T05:17:35.962Z,20.96
2022-09-15T05:22:41.938Z,21.14
2022-09-15T05:27:45.504Z,21.27
2022-09-15T05:32:48.903Z,21.41
2022-09-15T05:37:53.654Z,21.64
2022-09-15T05:42:57.129Z,21.92
2022-09-15T05:48:00.499Z,22.29
2022-09-15T05:53:05.625Z,22.63
2022-09-15T05:58:09.162Z,22.90
2022-09-15T06:03:15.986Z,23.13
2022-09-15T06:08:20.830Z,23.41
2022-09-15T06:13:24.207Z,23.56
2022-09-15T06:18:27.681Z,23.86
2022-09-15T06:23:32.613Z,24.50
2022-09-15T06:28:36.591Z,24.74
2022-09-15T06:33:44.044Z,25.13
2022-09-15T06:38:50.387Z,25.44
2022-09-15T06:43:53.933Z,25.79
2022-09-15T06:48:57.566Z,26.10
2022-09-15T06:54:02.886Z,26.47
2022-09-15T06:59:06.837Z,26.77
2022-09-15T07:04:10.937Z,26.75
2022-09-15T07:09:16.083Z,26.81
2022-09-15T07:14:19.800Z,26.94
2022-09-15T07:19:23.534Z,27.32
2022-09-15T07:24:28.327Z,27.67
2022-09-15T07:29:35.855Z,27.80
2022-09-15T07:34:41.068Z,28.24
2022-09-15T07:39:46.766Z,28.32
2022-09-15T07:44:50.210Z,28.55
2022-09-15T07:49:53.664Z,28.56
2022-09-15T07:54:58.455Z,29.21
2022-09-15T08:00:02.266Z,29.43
2022-09-15T08:05:15.707Z,29.74
2022-09-15T08:10:20.646Z,29.58
2022-09-15T08:15:24.282Z,30.12
2022-09-15T08:20:27.681Z,29.99
2022-09-15T08:25:33.093Z,30.23
2022-09-15T08:30:36.707Z,30.46
2022-09-15T08:35:40.134Z,30.60
2022-09-15T08:40:47.354Z,30.89
2022-09-15T08:45:55.084Z,31.10
2022-09-15T08:51:05.457Z,31.21
2022-09-15T08:56:17.205Z,31.29
2022-09-15T09:01:36.076Z,31.61
2022-09-15T09:06:46.196Z,31.57
2022-09-15T09:12:27.555Z,31.72
2022-09-15T09:17:43.067Z,32.07
2022-09-15T09:22:51.813Z,32.26
2022-09-15T09:27:58.178Z,32.35
2022-09-15T09:33:26.588Z,32.65
2022-09-15T09:38:33.549Z,32.88
2022-09-15T09:43:38.384Z,33.28
2022-09-15T09:48:45.522Z,33.48
2022-09-15T09:53:55.053Z,33.44
2022-09-15T09:59:01.503Z,33.62
2022-09-15T10:04:14.008Z,33.60
2022-09-15T10:09:19.189Z,33.63
2022-09-15T10:14:28.007Z,34.03
2022-09-15T10:19:33.405Z,33.94
2022-09-15T10:24:40.767Z,34.23
2022-09-15T10:29:46.121Z,34.38
2022-09-15T10:34:49.628Z,34.77
2022-09-15T10:39:58.206Z,34.59
2022-09-15T10:45:16.134Z,34.59
2022-09-15T10:50:30.601Z,34.54
2022-09-15T10:55:52.806Z,34.69
2022-09-15T11:01:06.880Z,34.73
2022-09-15T11:06:18.653Z,34.99
2022-09-15T11:11:33.455Z,34.87
2022-09-15T11:16:49.214Z,34.87
2022-09-15T11:21:56.803Z,34.81
2022-09-15T11:27:06.933Z,35.11
2022-09-15T11:32:19.123Z,35.48
2022-09-15T11:37:28.014Z,35.44
2022-09-15T11:42:37.661Z,35.31
2022-09-15T11:47:46.083Z,35.12
2022-09-15T11:52:56.981Z,34.99
2022-09-15T11:58:22.542Z,35.23
2022-09-15T12:03:33.938Z,35.01
2022-09-15T12:08:43.544Z,35.02
2022-09-15T12:13:47.614Z,35.05
2022-09-15T12:18:56.588Z,35.15
2022-09-15T12:24:09.040Z,35.41
2022-09-15T12:29:42.215Z,35.29
2022-09-15T12:34:59.578Z,34.53
2022-09-15T12:40:05.268Z,34.39
2022-09-15T12:45:23.685Z,34.50
2022-09-15T12:50:31.884Z,34.57
2022-09-15T12:55:37.732Z,34.57
2022-09-15T13:01:06.857Z,34.81
2022-09-15T13:06:21.046Z,34.40
2022-09-15T13:11:37.898Z,33.71
2022-09-15T13:16:49.695Z,33.40
2022-09-15T13:22:00.445Z,33.22
2022-09-15T13:27:07.191Z,33.39
2022-09-15T13:32:19.688Z,33.61
2022-09-15T13:43:30.948Z,33.79
2022-09-15T13:48:49.797Z,33.74
2022-09-15T13:53:57.692Z,33.55
2022-09-15T13:59:10.229Z,33.42
2022-09-15T14:04:19.269Z,33.37
2022-09-15T14:09:27.785Z,33.43
2022-09-15T14:14:37.625Z,33.40
2022-09-15T14:19:41.488Z,33.30
2022-09-15T14:24:47.349Z,33.18
2022-09-15T14:29:55.270Z,33.00
2022-09-15T14:35:05.595Z,33.08
2022-09-15T14:40:25.025Z,32.90
2022-09-15T14:46:02.798Z,32.82
2022-09-15T14:51:08.241Z,32.66
2022-09-15T14:56:20.064Z,32.52
2022-09-15T15:01:27.693Z,32.29
2022-09-15T15:06:35.208Z,32.21
2022-09-15T15:11:41.961Z,32.10
2022-09-15T15:16:54.010Z,31.95
2022-09-15T15:22:08.705Z,31.74
2022-09-15T15:27:44.784Z,31.68
2022-09-15T15:32:48.185Z,31.44
2022-09-15T15:38:02.367Z,31.34
2022-09-15T15:43:09.290Z,31.20
2022-09-15T15:48:13.192Z,31.06
2022-09-15T15:53:16.686Z,30.81
2022-09-15T15:58:21.879Z,30.57
2022-09-15T16:03:25.966Z,30.47
2022-09-15T16:08:31.305Z,30.14
2022-09-15T16:13:36.864Z,29.85
2022-09-15T16:18:40.250Z,29.63
2022-09-15T16:23:43.808Z,29.37
2022-09-15T16:28:48.827Z,29.10
2022-09-15T16:33:52.249Z,28.94
2022-09-15T16:38:55.622Z,28.74
2022-09-15T16:44:00.457Z,28.53
2022-09-15T16:49:03.834Z,28.41
2022-09-15T16:54:15.572Z,28.22
2022-09-15T16:59:20.418Z,27.99
2022-09-15T17:04:24.014Z,27.74
2022-09-15T17:09:27.436Z,27.55
2022-09-15T17:14:32.314Z,27.42
2022-09-15T17:19:35.835Z,27.19
2022-09-15T17:24:39.217Z,27.02
2022-09-15T17:29:44.216Z,26.82
2022-09-15T17:34:47.832Z,26.64
2022-09-15T17:39:53.534Z,26.53
2022-09-15T17:45:01.592Z,26.37
2022-09-15T17:50:05.942Z,26.13
2022-09-15T17:55:17.883Z,25.93
2022-09-15T18:00:24.000Z,25.67
2022-09-15T18:05:29.709Z,25.51
2022-09-15T18:10:34.762Z,25.43
2022-09-15T18:15:40.040Z,25.25
2022-09-15T18:20:44.291Z,24.96
2022-09-15T18:25:48.839Z,24.93
2022-09-15T18:30:53.704Z,24.85
2022-09-15T18:35:59.144Z,24.86
2022-09-15T18:41:04.652Z,24.77
2022-09-15T18:46:09.633Z,24.51
2022-09-15T18:51:19.709Z,24.33
2022-09-15T18:56:27.755Z,24.30
2022-09-15T19:01:32.880Z,24.26
2022-09-15T19:06:36.984Z,24.13
2022-09-15T19:11:40.446Z,24.01
2022-09-15T19:16:57.192Z,23.93
2022-09-15T19:22:01.605Z,23.84
2022-09-15T19:27:06.654Z,23.75
2022-09-15T19:32:13.790Z,23.72
2022-09-15T19:37:19.838Z,23.59
2022-09-15T19:42:23.400Z,23.63
2022-09-15T19:47:28.300Z,23.50
2022-09-15T19:52:31.788Z,23.39
2022-09-15T19:57:35.188Z,23.43
2022-09-15T20:02:40.356Z,23.53
2022-09-15T20:07:44.910Z,23.56
2022-09-15T20:12:48.430Z,23.40
2022-09-15T20:17:53.223Z,23.36
2022-09-15T20:22:56.605Z,23.44
2022-09-15T20:28:00.084Z,23.53
2022-09-15T20:33:05.050Z,23.54
2022-09-15T20:38:08.490Z,23.37
2022-09-15T20:43:12.230Z,23.23
2022-09-15T20:48:17.012Z,23.10
2022-09-15T20:53:20.726Z,23.15
2022-09-15T20:58:25.364Z,23.07
2022-09-15T21:03:30.536Z,22.85
2022-09-15T21:08:34.354Z,22.71
2022-09-15T21:13:38.717Z,22.77
2022-09-15T21:18:45.437Z,22.85
2022-09-15T21:23:50.390Z,22.71
2022-09-15T21:28:55.301Z,22.76
2022-09-15T21:34:01.030Z,22.99
2022-09-15T21:39:04.552Z,23.14
2022-09-15T21:44:08.041Z,23.13
2022-09-15T21:49:12.829Z,23.13
2022-09-15T21:54:16.520Z,23.11
2022-09-15T21:59:19.888Z,23.01
2022-09-15T22:04:24.726Z,23.05
2022-09-15T22:09:28.235Z,22.94
2022-09-15T22:14:32.566Z,22.83
2022-09-15T22:19:38.043Z,22.98
2022-09-15T22:24:41.815Z,23.11
2022-09-15T22:29:45.274Z,23.20
2022-09-15T22:34:50.301Z,23.16
2022-09-15T22:39:59.292Z,23.21
2022-09-15T22:45:02.976Z,23.26
2022-09-15T22:50:08.545Z,23.29
2022-09-15T22:55:11.945Z,23.21
2022-09-15T23:00:16.267Z,23.31
2022-09-15T23:05:21.268Z,23.19
2022-09-15T23:10:26.764Z,23.07
2022-09-15T23:15:30.417Z,23.07
2022-09-15T23:20:35.256Z,23.07
2022-09-15T23:25:38.701Z,23.23
2022-09-15T23:30:42.079Z,23.39
2022-09-15T23:35:47.073Z,23.44
2022-09-15T23:40:50.974Z,23.34
2022-09-15T23:45:54.540Z,23.16
2022-09-15T23:50:59.655Z,23.04
2022-09-15T23:56:03.642Z,23.03
